createdAt,value
2022-11-02T00:00:40.101Z,12.44
2022-11-02T00:03:28.735Z,12.45
2022-11-02T00:05:55.960Z,12.43
2022-11-02T00:08:23.358Z,12.32
2022-11-02T00:10:50.540Z,12.35
2022-11-02T00:13:20.447Z,12.28
2022-11-02T00:15:47.941Z,12.31
2022-11-02T00:18:15.749Z,12.27
2022-11-02T00:20:43.724Z,12.27
2022-11-02T00:23:13.506Z,12.31
2022-11-02T00:25:50.376Z,12.45
2022-11-02T00:28:17.904Z,12.28
2022-11-02T00:30:45.151Z,12.24
2022-11-02T00:33:12.722Z,12.33
2022-11-02T00:35:40.393Z,12.33
2022-11-02T00:38:08.235Z,12.26
2022-11-02T00:40:35.378Z,12.33
2022-11-02T00:43:02.815Z,12.23
2022-11-02T00:45:30.068Z,12.22
2022-11-02T00:47:57.783Z,12.23
2022-11-02T00:50:25.153Z,12.21
2022-11-02T00:52:52.498Z,12.19
2022-11-02T00:55:19.788Z,12.13
2022-11-02T00:57:47.562Z,12.02
2022-11-02T01:00:15.711Z,11.99
2022-11-02T01:02:43.484Z,12.09
2022-11-02T01:05:11.428Z,12.02
2022-11-02T01:07:39.363Z,12.07
2022-11-02T01:10:09.005Z,12.11
2022-11-02T01:12:37.736Z,11.87
2022-11-02T01:15:10.423Z,11.71
2022-11-02T01:17:38.593Z,11.62
2022-11-02T01:20:06.972Z,11.63
2022-11-02T01:22:34.487Z,11.60
2022-11-02T01:25:01.762Z,11.63
2022-11-02T01:27:29.359Z,11.55
2022-11-02T01:29:57.034Z,11.53
2022-11-02T01:32:24.495Z,11.51
2022-11-02T01:34:51.674Z,11.53
2022-11-02T01:37:19.039Z,11.49
2022-11-02T01:39:46.258Z,11.37
2022-11-02T01:42:22.534Z,11.16
2022-11-02T01:44:49.759Z,11.04
2022-11-02T01:47:28.625Z,11.24
2022-11-02T01:50:10.338Z,11.14
2022-11-02T01:52:39.127Z,11.15
2022-11-02T01:55:10.693Z,11.00
2022-11-02T01:57:40.081Z,11.11
2022-11-02T02:00:11.062Z,11.04
2022-11-02T02:02:51.632Z,11.01
2022-11-02T02:05:22.053Z,10.93
2022-11-02T02:07:52.144Z,10.93
2022-11-02T02:10:19.738Z,10.94
2022-11-02T02:12:48.095Z,10.85
2022-11-02T02:15:22.807Z,10.97
2022-11-02T02:18:02.657Z,10.96
2022-11-02T02:21:00.440Z,10.71
2022-11-02T02:24:05.698Z,10.72
2022-11-02T02:27:02.347Z,10.67
2022-11-02T02:30:01.994Z,10.62
2022-11-02T02:32:54.584Z,10.50
2022-11-02T02:35:58.922Z,10.35
2022-11-02T02:38:35.827Z,9.96
2022-11-02T02:41:09.235Z,10.13
2022-11-02T02:43:47.510Z,10.01
2022-11-02T02:46:46.566Z,10.02
2022-11-02T02:49:20.503Z,10.11
2022-11-02T02:51:48.980Z,10.04
2022-11-02T02:54:43.097Z,10.32
2022-11-02T02:57:15.957Z,10.00
2022-11-02T02:59:46.699Z,10.08
2022-11-02T03:02:23.469Z,9.98
2022-11-02T03:04:50.892Z,10.00
2022-11-02T03:07:26.368Z,9.87
2022-11-02T03:10:21.096Z,9.95
2022-11-02T03:13:08.585Z,9.86
2022-11-02T03:15:42.079Z,9.47
2022-11-02T03:18:44.639Z,9.59
2022-11-02T03:21:54.145Z,9.71
2022-11-02T03:24:34.213Z,9.82
2022-11-02T03:27:10.069Z,9.81
2022-11-02T03:29:52.908Z,9.79
2022-11-02T03:32:39.334Z,9.87
2022-11-02T03:35:17.200Z,9.74
2022-11-02T03:37:56.129Z,9.58
2022-11-02T03:40:28.792Z,9.54
2022-11-02T03:42:57.987Z,9.49
2022-11-02T03:45:31.456Z,9.69
2022-11-02T03:48:04.581Z,9.62
2022-11-02T03:50:34.116Z,9.72
2022-11-02T03:53:11.058Z,9.78
2022-11-02T03:55:53.227Z,9.79
2022-11-02T03:58:20.706Z,9.85
2022-11-02T04:01:02.124Z,9.85
2022-11-02T04:03:33.180Z,9.95
2022-11-02T04:06:01.975Z,10.03
2022-11-02T04:08:36.715Z,10.09
2022-11-02T04:11:26.900Z,10.14
2022-11-02T04:14:16.977Z,10.11
2022-11-02T04:16:45.782Z,10.25
2022-11-02T04:19:30.582Z,10.27
2022-11-02T04:22:19.944Z,10.35
2022-11-02T04:25:09.636Z,10.34
2022-11-02T04:27:38.081Z,10.37
2022-11-02T04:30:05.875Z,10.48
2022-11-02T04:33:01.695Z,10.39
2022-11-02T04:35:34.680Z,10.35
2022-11-02T04:38:22.101Z,10.34
2022-11-02T04:41:09.186Z,10.27
2022-11-02T04:43:36.896Z,10.19
2022-11-02T04:46:04.481Z,10.17
2022-11-02T04:48:34.970Z,10.15
2022-11-02T04:51:02.939Z,10.08
2022-11-02T04:53:31.135Z,9.94
2022-11-02T04:55:58.552Z,10.08
2022-11-02T04:58:27.131Z,9.92
2022-11-02T05:00:54.342Z,9.95
2022-11-02T05:03:21.816Z,9.93
2022-11-02T05:05:54.934Z,9.96
2022-11-02T05:08:23.652Z,9.93
2022-11-02T05:10:58.023Z,9.86
2022-11-02T05:13:27.139Z,9.79
2022-11-02T05:15:58.246Z,9.71
2022-11-02T05:18:28.414Z,9.72
2022-11-02T05:21:01.349Z,9.74
2022-11-02T05:23:30.657Z,9.70
2022-11-02T05:26:02.103Z,9.73
2022-11-02T05:28:32.040Z,9.67
2022-11-02T05:31:01.627Z,9.64
2022-11-02T05:33:31.897Z,9.60
2022-11-02T05:36:04.055Z,9.59
2022-11-02T05:38:32.614Z,9.65
2022-11-02T05:41:00.743Z,9.59
2022-11-02T05:43:32.128Z,9.56
2022-11-02T05:46:02.967Z,9.53
2022-11-02T05:48:33.455Z,9.54
2022-11-02T05:51:02.988Z,9.58
2022-11-02T05:53:32.729Z,9.53
2022-11-02T05:56:01.012Z,9.61
2022-11-02T05:58:29.528Z,9.50
2022-11-02T06:01:00.922Z,9.49
2022-11-02T06:03:28.666Z,9.41
2022-11-02T06:05:57.543Z,9.58
2022-11-02T06:08:25.634Z,9.45
2022-11-02T06:10:53.237Z,9.46
2022-11-02T06:13:20.558Z,9.47
2022-11-02T06:15:47.627Z,9.44
2022-11-02T06:18:14.932Z,9.42
2022-11-02T06:20:42.061Z,9.51
2022-11-02T06:23:09.639Z,9.46
2022-11-02T06:25:36.792Z,9.44
2022-11-02T06:28:04.398Z,9.51
2022-11-02T06:30:32.570Z,9.52
2022-11-02T06:33:03.007Z,9.62
2022-11-02T06:35:34.094Z,9.56
2022-11-02T06:38:01.826Z,9.51
2022-11-02T06:40:29.397Z,9.48
2022-11-02T06:43:17.070Z,9.43
2022-11-02T06:45:45.133Z,9.53
2022-11-02T06:48:12.730Z,9.47
2022-11-02T06:50:40.043Z,9.52
2022-11-02T06:53:07.878Z,9.32
2022-11-02T06:55:35.362Z,9.55
2022-11-02T06:58:02.978Z,9.58
2022-11-02T07:00:30.503Z,9.54
2022-11-02T07:03:03.346Z,9.48
2022-11-02T07:05:31.439Z,9.53
2022-11-02T07:07:59.301Z,9.51
2022-11-02T07:10:27.866Z,9.50
2022-11-02T07:12:57.275Z,9.70
2022-11-02T07:15:26.339Z,9.71
2022-11-02T07:17:54.111Z,9.82
2022-11-02T07:20:21.823Z,9.63
2022-11-02T07:22:57.461Z,9.60
2022-11-02T07:25:25.913Z,9.76
2022-11-02T07:27:54.008Z,9.77
2022-11-02T07:30:21.219Z,9.63
2022-11-02T07:32:48.875Z,9.59
2022-11-02T07:35:17.633Z,9.72
2022-11-02T07:37:45.223Z,9.90
2022-11-02T07:40:14.551Z,9.49
2022-11-02T07:42:46.715Z,9.44
2022-11-02T07:45:17.162Z,9.51
2022-11-02T07:47:54.335Z,9.65
2022-11-02T07:50:49.859Z,9.39
2022-11-02T07:54:15.788Z,9.36
2022-11-02T07:57:15.806Z,9.31
2022-11-02T07:59:59.189Z,9.65
2022-11-02T08:03:04.296Z,9.76
2022-11-02T08:08:43.393Z,9.50
2022-11-02T08:12:08.735Z,9.69
2022-11-02T08:14:37.153Z,9.73
2022-11-02T08:17:04.443Z,9.63
2022-11-02T08:19:31.980Z,9.71
2022-11-02T08:21:59.309Z,9.82
2022-11-02T08:24:26.584Z,9.89
2022-11-02T08:26:55.028Z,9.75
2022-11-02T08:29:22.481Z,9.94
2022-11-02T08:31:50.047Z,10.02
2022-11-02T08:34:17.692Z,10.06
2022-11-02T08:36:46.346Z,10.02
2022-11-02T08:39:23.140Z,10.35
2022-11-02T08:41:51.353Z,9.84
2022-11-02T08:44:19.148Z,9.89
2022-11-02T08:46:47.211Z,10.20
2022-11-02T08:49:15.006Z,10.02
2022-11-02T08:52:08.168Z,9.99
2022-11-02T08:54:35.368Z,9.96
2022-11-02T08:57:02.960Z,9.75
2022-11-02T08:59:30.178Z,9.95
2022-11-02T09:01:57.876Z,9.89
2022-11-02T09:04:25.368Z,9.92
2022-11-02T09:06:52.967Z,10.02
2022-11-02T09:09:20.244Z,10.67
2022-11-02T09:11:50.538Z,10.72
2022-11-02T09:14:17.968Z,10.50
2022-11-02T09:16:45.565Z,10.52
2022-11-02T09:19:12.738Z,10.79
2022-11-02T09:21:40.141Z,10.78
2022-11-02T09:24:07.751Z,10.70
2022-11-02T09:26:35.348Z,10.76
2022-11-02T09:29:02.642Z,10.52
2022-11-02T09:31:30.325Z,10.19
2022-11-02T09:33:57.552Z,10.53
2022-11-02T09:36:25.095Z,10.51
2022-11-02T09:38:52.294Z,11.17
2022-11-02T09:41:32.118Z,11.32
2022-11-02T09:44:11.141Z,11.35
2022-11-02T09:46:41.696Z,12.34
2022-11-02T09:49:14.469Z,12.37
2022-11-02T09:51:56.181Z,11.92
2022-11-02T09:54:29.815Z,12.08
2022-11-02T09:57:09.302Z,12.46
2022-11-02T09:59:36.646Z,12.32
2022-11-02T10:02:44.646Z,12.49
2022-11-02T10:05:43.174Z,11.92
2022-11-02T10:08:19.106Z,12.40
2022-11-02T10:11:11.065Z,11.62
2022-11-02T10:13:41.429Z,11.83
2022-11-02T10:16:26.415Z,12.28
2022-11-02T10:18:54.800Z,11.98
2022-11-02T10:21:37.116Z,12.56
2022-11-02T10:24:35.452Z,12.42
2022-11-02T10:27:13.944Z,11.96
2022-11-02T10:29:51.806Z,12.11
2022-11-02T10:32:19.242Z,12.77
2022-11-02T10:34:58.653Z,12.93
2022-11-02T10:38:11.951Z,11.87
2022-11-02T10:41:03.257Z,11.51
2022-11-02T10:43:52.227Z,11.42
2022-11-02T10:46:32.320Z,11.59
2022-11-02T10:49:31.673Z,12.10
2022-11-02T10:51:59.308Z,11.64
2022-11-02T10:54:33.225Z,11.12
2022-11-02T10:57:11.838Z,11.15
2022-11-02T10:59:39.355Z,11.27
2022-11-02T11:02:14.840Z,11.66
2022-11-02T11:04:42.930Z,11.47
2022-11-02T11:07:21.032Z,11.32
2022-11-02T11:09:57.567Z,11.44
2022-11-02T11:12:38.940Z,11.23
2022-11-02T11:20:43.490Z,11.02
2022-11-02T11:23:21.334Z,11.03
2022-11-02T11:25:57.388Z,11.12
2022-11-02T11:28:41.097Z,11.19
2022-11-02T11:31:14.727Z,11.23
2022-11-02T11:33:57.422Z,11.06
2022-11-02T11:36:31.249Z,11.33
2022-11-02T11:39:02.607Z,11.33
2022-11-02T11:41:32.854Z,11.37
2022-11-02T11:44:02.498Z,11.42
2022-11-02T11:46:47.336Z,11.51
2022-11-02T11:52:31.649Z,11.44
2022-11-02T11:55:02.291Z,11.43
2022-11-02T11:57:32.355Z,11.58
2022-11-02T12:00:04.918Z,11.46
2022-11-02T12:02:39.535Z,11.74
2022-11-02T12:05:20.909Z,11.54
2022-11-02T12:08:35.387Z,11.65
2022-11-02T12:11:05.862Z,11.69
2022-11-02T12:14:06.683Z,11.74
2022-11-02T12:16:46.280Z,11.89
2022-11-02T12:19:22.242Z,11.98
2022-11-02T12:22:05.694Z,12.96
2022-11-02T12:24:57.341Z,12.93
2022-11-02T12:27:41.640Z,12.66
2022-11-02T12:30:47.202Z,12.49
2022-11-02T12:33:22.253Z,12.21
2022-11-02T12:36:07.734Z,12.16
2022-11-02T12:38:37.982Z,12.31
2022-11-02T12:41:08.121Z,12.12
2022-11-02T12:43:44.198Z,12.14
2022-11-02T12:46:20.875Z,11.96
2022-11-02T12:48:57.316Z,12.14
2022-11-02T12:51:30.097Z,12.01
2022-11-02T12:54:09.612Z,12.20
2022-11-02T12:56:49.670Z,13.21
2022-11-02T12:59:22.923Z,13.53
2022-11-02T13:01:55.021Z,13.45
2022-11-02T13:04:30.180Z,13.52
2022-11-02T13:07:11.412Z,13.60
2022-11-02T13:09:40.535Z,13.62
2022-11-02T13:12:14.778Z,13.41
2022-11-02T13:15:01.544Z,13.25
2022-11-02T13:18:00.860Z,13.74
2022-11-02T13:20:36.006Z,13.68
2022-11-02T13:23:06.541Z,13.05
2022-11-02T13:25:50.034Z,13.20
2022-11-02T13:28:54.135Z,12.93
2022-11-02T13:31:29.896Z,13.18
2022-11-02T13:34:00.524Z,12.94
2022-11-02T13:36:27.796Z,13.12
2022-11-02T13:39:19.709Z,13.40
2022-11-02T13:42:07.916Z,13.35
2022-11-02T13:44:50.347Z,13.11
2022-11-02T13:48:02.145Z,12.87
2022-11-02T13:50:53.156Z,13.13
2022-11-02T13:53:52.603Z,12.92
2022-11-02T13:57:32.965Z,12.97
2022-11-02T14:00:46.340Z,12.89
2022-11-02T14:07:40.504Z,12.64
2022-11-02T14:10:19.020Z,12.50
2022-11-02T14:12:47.753Z,12.20
2022-11-02T14:15:15.456Z,12.10
2022-11-02T14:18:01.812Z,12.05
2022-11-02T14:20:41.605Z,12.01
2022-11-02T14:23:11.679Z,12.12
2022-11-02T14:25:52.408Z,12.08
2022-11-02T14:28:30.143Z,12.01
2022-11-02T14:31:03.317Z,12.11
2022-11-02T14:33:52.678Z,12.14
2022-11-02T14:36:20.340Z,11.95
2022-11-02T14:39:10.904Z,11.97
2022-11-02T14:41:41.318Z,11.76
2022-11-02T14:44:36.801Z,11.82
2022-11-02T14:48:27.322Z,11.72
2022-11-02T14:51:35.851Z,11.69
2022-11-02T14:57:33.665Z,11.61
2022-11-02T15:15:20.816Z,11.58
2022-11-02T15:24:35.686Z,11.50
2022-11-02T15:27:46.150Z,11.45
2022-11-02T15:30:43.597Z,11.52
2022-11-02T15:38:17.578Z,11.45
2022-11-02T15:41:31.683Z,11.34
2022-11-02T15:44:41.650Z,11.41
2022-11-02T15:50:38.945Z,11.23
2022-11-02T15:54:17.713Z,11.32
2022-11-02T15:57:20.916Z,11.13
2022-11-02T15:59:51.563Z,11.12
2022-11-02T16:02:32.075Z,11.12
2022-11-02T16:05:06.170Z,11.08
2022-11-02T16:07:56.914Z,11.14
2022-11-02T16:10:28.199Z,11.08
2022-11-02T16:13:07.923Z,11.15
2022-11-02T16:15:35.374Z,11.10
2022-11-02T16:18:03.140Z,11.04
2022-11-02T16:20:37.234Z,11.05
2022-11-02T16:23:06.908Z,10.98
2022-11-02T16:25:47.664Z,10.95
2022-11-02T16:28:31.412Z,10.97
2022-11-02T16:31:18.133Z,10.99
2022-11-02T16:33:58.072Z,10.96
2022-11-02T16:36:31.348Z,10.84
2022-11-02T16:39:01.890Z,10.82
2022-11-02T16:41:32.936Z,10.78
2022-11-02T16:44:10.110Z,10.72
2022-11-02T16:46:49.816Z,10.76
2022-11-02T16:49:24.757Z,10.61
2022-11-02T16:51:54.770Z,10.52
2022-11-02T16:54:34.202Z,10.49
2022-11-02T16:57:21.865Z,10.46
2022-11-02T16:59:57.921Z,10.49
2022-11-02T17:02:46.479Z,10.46
2022-11-02T17:05:26.070Z,10.40
2022-11-02T17:08:04.809Z,10.31
2022-11-02T17:10:34.220Z,10.26
2022-11-02T17:13:07.129Z,10.13
2022-11-02T17:15:34.988Z,10.20
2022-11-02T17:18:08.821Z,10.08
2022-11-02T17:20:40.520Z,10.09
2022-11-02T17:23:32.241Z,10.03
2022-11-02T17:26:27.360Z,9.69
2022-11-02T17:29:16.595Z,9.72
2022-11-02T17:31:43.852Z,9.70
2022-11-02T17:34:19.126Z,9.52
2022-11-02T17:36:49.012Z,9.53
2022-11-02T17:39:19.280Z,9.42
2022-11-02T17:42:11.830Z,9.52
2022-11-02T17:44:39.690Z,9.35
2022-11-02T17:47:12.862Z,9.37
2022-11-02T17:49:40.735Z,9.31
2022-11-02T17:52:13.069Z,9.36
2022-11-02T17:54:40.728Z,9.18
2022-11-02T17:57:12.956Z,9.34
2022-11-02T17:59:40.716Z,9.29
2022-11-02T18:02:12.866Z,9.23
2022-11-02T18:04:40.777Z,9.15
2022-11-02T18:07:08.193Z,9.06
2022-11-02T18:09:35.892Z,9.14
2022-11-02T18:12:03.379Z,9.14
2022-11-02T18:14:31.172Z,9.19
2022-11-02T18:16:58.627Z,9.21
2022-11-02T18:19:26.206Z,9.29
2022-11-02T18:21:53.797Z,9.44
2022-11-02T18:24:21.384Z,9.52
2022-11-02T18:26:48.634Z,9.49
2022-11-02T18:29:16.744Z,9.51
2022-11-02T18:31:44.366Z,9.63
2022-11-02T18:34:12.440Z,9.47
2022-11-02T18:36:40.749Z,9.57
2022-11-02T18:39:09.588Z,9.55
2022-11-02T18:41:37.785Z,9.57
2022-11-02T18:44:13.530Z,9.59
2022-11-02T18:46:43.072Z,9.59
2022-11-02T18:49:11.513Z,9.65
2022-11-02T18:51:43.219Z,9.87
2022-11-02T18:54:13.258Z,9.97
2022-11-02T18:56:41.602Z,9.83
2022-11-02T18:59:10.203Z,9.83
2022-11-02T19:01:38.106Z,9.75
2022-11-02T19:04:06.139Z,9.69
2022-11-02T19:06:52.619Z,9.74
2022-11-02T19:09:23.606Z,9.70
2022-11-02T19:12:00.453Z,9.76
2022-11-02T19:14:34.183Z,9.80
2022-11-02T19:17:02.417Z,9.78
2022-11-02T19:19:30.623Z,9.79
2022-11-02T19:21:58.546Z,9.78
2022-11-02T19:24:26.396Z,9.58
2022-11-02T19:26:54.106Z,9.60
2022-11-02T19:29:22.140Z,9.53
2022-11-02T19:31:49.608Z,9.38
2022-11-02T19:34:17.281Z,9.27
2022-11-02T19:36:44.656Z,9.22
2022-11-02T19:39:12.447Z,9.26
2022-11-02T19:41:40.019Z,9.23
2022-11-02T19:44:08.203Z,9.24
2022-11-02T19:46:36.044Z,9.07
2022-11-02T19:49:04.098Z,8.92
2022-11-02T19:51:32.155Z,8.86
2022-11-02T19:54:02.564Z,8.92
2022-11-02T19:56:33.063Z,8.84
2022-11-02T19:59:02.007Z,8.84
2022-11-02T20:01:32.219Z,8.84
2022-11-02T20:04:00.538Z,8.67
2022-11-02T20:06:39.662Z,8.65
2022-11-02T20:09:10.419Z,8.58
2022-11-02T20:11:40.078Z,8.47
2022-11-02T20:14:08.508Z,8.56
2022-11-02T20:16:36.223Z,8.45
2022-11-02T20:19:05.256Z,8.55
2022-11-02T20:21:38.250Z,8.45
2022-11-02T20:24:11.943Z,8.52
2022-11-02T20:26:44.062Z,8.44
2022-11-02T20:29:15.486Z,8.49
2022-11-02T20:31:46.047Z,8.23
2022-11-02T20:34:14.546Z,8.20
2022-11-02T20:36:42.868Z,8.33
2022-11-02T20:39:12.315Z,8.27
2022-11-02T20:41:39.962Z,8.14
2022-11-02T20:44:08.728Z,8.20
2022-11-02T20:46:40.993Z,8.13
2022-11-02T20:49:22.360Z,8.05
2022-11-02T20:51:57.635Z,7.97
2022-11-02T20:54:29.898Z,7.94
2022-11-02T20:56:57.915Z,7.86
2022-11-02T20:59:26.675Z,7.83
2022-11-02T21:01:54.601Z,7.78
2022-11-02T21:04:23.759Z,7.86
2022-11-02T21:06:52.432Z,7.87
2022-11-02T21:09:21.079Z,7.86
2022-11-02T21:12:07.031Z,7.73
2022-11-02T21:14:34.970Z,7.82
2022-11-02T21:17:03.071Z,7.80
2022-11-02T21:19:30.986Z,7.78
2022-11-02T21:22:00.194Z,7.91
2022-11-02T21:24:29.219Z,7.74
2022-11-02T21:26:57.076Z,7.79
2022-11-02T21:29:24.957Z,7.74
2022-11-02T21:31:52.377Z,7.71
2022-11-02T21:34:20.102Z,7.72
2022-11-02T21:36:48.807Z,7.72
2022-11-02T21:39:16.782Z,7.71
2022-11-02T21:41:44.267Z,7.71
2022-11-02T21:44:12.146Z,7.75
2022-11-02T21:46:39.603Z,7.69
2022-11-02T21:49:07.302Z,7.69
2022-11-02T21:51:35.098Z,7.73
2022-11-02T21:54:02.882Z,7.72
2022-11-02T21:56:32.041Z,7.76
2022-11-02T21:58:59.867Z,7.80
2022-11-02T22:01:46.893Z,7.75
2022-11-02T22:04:21.618Z,7.79
2022-11-02T22:06:50.210Z,7.77
2022-11-02T22:09:18.438Z,7.86
2022-11-02T22:11:45.773Z,7.87
2022-11-02T22:14:14.127Z,7.87
2022-11-02T22:16:43.442Z,7.87
2022-11-02T22:19:13.200Z,7.90
2022-11-02T22:21:43.607Z,7.90
2022-11-02T22:24:11.951Z,7.85
2022-11-02T22:26:39.738Z,7.71
2022-11-02T22:29:07.616Z,7.61
2022-11-02T22:31:37.545Z,7.52
2022-11-02T22:34:06.582Z,7.45
2022-11-02T22:36:35.223Z,7.52
2022-11-02T22:39:05.043Z,7.60
2022-11-02T22:41:36.662Z,7.56
2022-11-02T22:44:08.419Z,7.49
2022-11-02T22:46:41.207Z,7.46
2022-11-02T22:49:10.838Z,7.43
2022-11-02T22:51:40.437Z,7.43
2022-11-02T22:54:10.337Z,7.48
2022-11-02T22:56:38.212Z,7.47
2022-11-02T22:59:07.328Z,7.51
2022-11-02T23:01:36.109Z,7.48
2022-11-02T23:04:04.728Z,7.58
2022-11-02T23:06:32.502Z,7.55
2022-11-02T23:09:00.179Z,7.56
2022-11-02T23:11:30.748Z,7.70
2022-11-02T23:14:08.806Z,7.77
2022-11-02T23:16:44.348Z,7.74
2022-11-02T23:19:30.158Z,7.86
2022-11-02T23:22:21.036Z,7.83
2022-11-02T23:25:10.689Z,7.73
2022-11-02T23:28:13.148Z,7.70
2022-11-02T23:31:00.321Z,7.75
2022-11-02T23:33:32.795Z,7.77
2022-11-02T23:36:15.350Z,7.62
2022-11-02T23:39:03.243Z,7.61
2022-11-02T23:41:32.350Z,7.52
2022-11-02T23:44:12.447Z,7.51
2022-11-02T23:46:45.920Z,7.56
2022-11-02T23:49:13.827Z,7.51
2022-11-02T23:52:16.703Z,7.45
2022-11-02T23:55:02.480Z,7.48
2022-11-02T23:57:30.391Z,7.45
2022-11-02T23:59:57.551Z,7.38
